createdAt,value
2019-05-30T00:00:18.038Z,10.67
2019-05-30T00:02:49.338Z,10.69
2019-05-30T00:05:20.718Z,10.62
2019-05-30T00:07:51.489Z,10.50
2019-05-30T00:10:22.327Z,10.41
2019-05-30T00:12:54.584Z,10.26
2019-05-30T00:15:25.673Z,10.20
2019-05-30T00:17:56.953Z,10.08
2019-05-30T00:20:28.066Z,10.07
2019-05-30T00:22:59.100Z,9.94
2019-05-30T00:25:29.898Z,10.04
2019-05-30T00:28:01.408Z,9.90
2019-05-30T00:30:32.227Z,9.89
2019-05-30T00:33:03.863Z,9.84
2019-05-30T00:35:35.949Z,9.75
2019-05-30T00:38:06.881Z,9.75
2019-05-30T00:40:37.816Z,9.70
2019-05-30T00:43:08.939Z,9.74
2019-05-30T00:45:40.293Z,9.66
2019-05-30T00:48:12.060Z,9.65
2019-05-30T00:50:43.096Z,9.65
2019-05-30T00:53:14.235Z,9.55
2019-05-30T00:55:45.255Z,9.59
2019-05-30T00:58:16.197Z,9.52
2019-05-30T01:00:47.283Z,9.49
2019-05-30T01:03:18.098Z,9.49
2019-05-30T01:05:48.893Z,9.53
2019-05-30T01:08:19.773Z,9.49
2019-05-30T01:10:51.046Z,9.51
2019-05-30T01:13:22.428Z,9.54
2019-05-30T01:15:53.728Z,9.49
2019-05-30T01:18:24.881Z,9.50
2019-05-30T01:20:57.012Z,9.69
2019-05-30T01:23:27.825Z,9.77
2019-05-30T01:25:59.295Z,9.76
2019-05-30T01:28:30.257Z,9.88
2019-05-30T01:31:07.340Z,9.90
2019-05-30T01:33:34.816Z,9.90
2019-05-30T01:36:05.868Z,9.77
2019-05-30T01:38:36.903Z,9.78
2019-05-30T01:41:08.115Z,9.71
2019-05-30T01:43:38.949Z,9.89
2019-05-30T01:46:10.375Z,9.81
2019-05-30T01:48:41.181Z,9.80
2019-05-30T01:51:12.043Z,9.78
2019-05-30T01:53:42.913Z,9.77
2019-05-30T01:56:13.768Z,9.71
2019-05-30T01:58:44.571Z,9.76
2019-05-30T02:01:24.336Z,9.76
2019-05-30T02:03:47.857Z,9.67
2019-05-30T02:06:18.948Z,9.59
2019-05-30T02:08:49.749Z,9.51
2019-05-30T02:11:20.863Z,9.44
2019-05-30T02:13:53.418Z,9.42
2019-05-30T02:16:24.214Z,9.37
2019-05-30T02:18:55.016Z,9.32
2019-05-30T02:21:26.054Z,9.28
2019-05-30T02:23:57.132Z,9.35
2019-05-30T02:26:28.166Z,9.38
2019-05-30T02:28:59.960Z,9.41
2019-05-30T02:31:39.083Z,9.53
2019-05-30T02:34:07.619Z,9.50
2019-05-30T02:36:38.752Z,9.54
2019-05-30T02:39:10.312Z,9.53
2019-05-30T02:41:43.175Z,9.51
2019-05-30T02:44:14.375Z,9.59
2019-05-30T02:46:45.485Z,9.66
2019-05-30T02:49:16.374Z,9.65
2019-05-30T02:51:47.186Z,9.66
2019-05-30T02:54:18.551Z,9.65
2019-05-30T02:56:49.521Z,9.73
2019-05-30T02:59:20.392Z,9.70
2019-05-30T03:02:00.796Z,9.71
2019-05-30T03:04:24.252Z,9.74
2019-05-30T03:06:55.127Z,9.71
2019-05-30T03:09:25.989Z,9.56
2019-05-30T03:11:57.099Z,9.50
2019-05-30T03:14:27.977Z,9.46
2019-05-30T03:16:59.315Z,9.33
2019-05-30T03:19:30.426Z,9.34
2019-05-30T03:22:03.366Z,9.32
2019-05-30T03:24:34.846Z,9.19
2019-05-30T03:27:07.072Z,9.17
2019-05-30T03:29:38.884Z,9.20
2019-05-30T03:32:57.499Z,9.18
2019-05-30T03:34:43.518Z,9.17
2019-05-30T03:37:26.471Z,9.13
2019-05-30T03:39:46.937Z,9.11
2019-05-30T03:42:17.842Z,9.16
2019-05-30T03:44:48.713Z,9.13
2019-05-30T03:47:20.035Z,9.19
2019-05-30T03:49:51.420Z,9.19
2019-05-30T03:52:23.712Z,9.24
2019-05-30T03:54:54.946Z,9.21
2019-05-30T03:57:30.537Z,9.19
2019-05-30T04:00:05.998Z,9.20
2019-05-30T04:02:57.069Z,9.16
2019-05-30T04:05:22.477Z,9.12
2019-05-30T04:07:55.272Z,9.15
2019-05-30T04:10:29.077Z,9.13
2019-05-30T04:13:12.263Z,9.12
2019-05-30T04:15:43.818Z,9.12
2019-05-30T04:18:16.417Z,9.10
2019-05-30T04:20:48.804Z,9.12
2019-05-30T04:23:19.716Z,9.15
2019-05-30T04:25:50.820Z,9.21
2019-05-30T04:28:21.870Z,9.31
2019-05-30T04:30:53.008Z,9.38
2019-05-30T04:33:32.290Z,9.46
2019-05-30T04:35:56.366Z,9.50
2019-05-30T04:38:27.228Z,9.55
2019-05-30T04:40:58.109Z,9.60
2019-05-30T04:43:29.142Z,9.64
2019-05-30T04:46:00.426Z,9.68
2019-05-30T04:48:31.958Z,9.69
2019-05-30T04:51:02.778Z,9.77
2019-05-30T04:53:33.899Z,9.85
2019-05-30T04:56:04.867Z,9.93
2019-05-30T04:58:41.221Z,9.90
2019-05-30T05:01:08.704Z,9.94
2019-05-30T05:03:45.778Z,9.97
2019-05-30T05:06:13.792Z,10.04
2019-05-30T05:08:44.942Z,10.04
2019-05-30T05:11:18.697Z,10.10
2019-05-30T05:13:48.415Z,10.16
2019-05-30T05:16:31.070Z,10.22
2019-05-30T05:18:53.292Z,10.33
2019-05-30T05:21:24.106Z,10.45
2019-05-30T05:23:55.565Z,10.51
2019-05-30T05:26:26.869Z,10.64
2019-05-30T05:28:57.915Z,10.75
2019-05-30T05:31:29.016Z,10.80
2019-05-30T05:34:00.082Z,10.86
2019-05-30T05:36:30.883Z,11.04
2019-05-30T05:39:01.682Z,11.10
2019-05-30T05:41:33.991Z,11.17
2019-05-30T05:44:05.054Z,11.29
2019-05-30T05:46:35.950Z,11.48
2019-05-30T05:49:07.067Z,11.85
2019-05-30T05:51:37.945Z,12.19
2019-05-30T05:54:09.292Z,12.43
2019-05-30T05:56:40.431Z,12.82
2019-05-30T05:59:11.307Z,12.85
2019-05-30T06:01:42.384Z,13.04
2019-05-30T06:04:13.843Z,13.20
2019-05-30T06:06:44.758Z,13.34
2019-05-30T06:09:16.483Z,13.37
2019-05-30T06:11:49.127Z,13.38
2019-05-30T06:14:21.785Z,13.35
2019-05-30T06:16:55.732Z,13.27
2019-05-30T06:19:25.520Z,13.32
2019-05-30T06:21:56.332Z,13.24
2019-05-30T06:24:27.899Z,13.20
2019-05-30T06:26:58.756Z,13.23
2019-05-30T06:29:29.549Z,13.25
2019-05-30T06:32:00.851Z,13.31
2019-05-30T06:34:38.776Z,13.33
2019-05-30T06:37:05.917Z,13.66
2019-05-30T06:39:36.961Z,13.75
2019-05-30T06:42:08.070Z,14.20
2019-05-30T06:44:39.192Z,14.20
2019-05-30T06:47:10.076Z,14.45
2019-05-30T06:49:41.242Z,14.95
2019-05-30T06:52:12.127Z,15.29
2019-05-30T06:54:43.450Z,16.13
2019-05-30T06:57:14.465Z,16.14
2019-05-30T06:59:45.328Z,16.88
2019-05-30T07:02:16.433Z,16.86
2019-05-30T07:04:52.151Z,17.11
2019-05-30T07:07:20.097Z,17.49
2019-05-30T07:09:50.989Z,17.64
2019-05-30T07:12:22.978Z,17.54
2019-05-30T07:14:54.046Z,17.81
2019-05-30T07:17:25.239Z,18.01
2019-05-30T07:19:56.277Z,17.99
2019-05-30T07:22:27.746Z,18.02
2019-05-30T07:24:58.558Z,18.25
2019-05-30T07:27:29.904Z,18.56
2019-05-30T07:30:01.259Z,19.10
2019-05-30T07:32:32.209Z,19.16
2019-05-30T07:35:07.265Z,18.78
2019-05-30T07:37:35.981Z,19.51
2019-05-30T07:40:09.865Z,18.99
2019-05-30T07:42:40.656Z,18.81
2019-05-30T07:45:12.215Z,18.49
2019-05-30T07:47:44.226Z,18.13
2019-05-30T07:50:15.580Z,18.56
2019-05-30T07:52:46.376Z,18.50
2019-05-30T07:55:17.259Z,19.16
2019-05-30T07:57:48.312Z,19.32
2019-05-30T08:00:19.789Z,19.52
2019-05-30T08:02:50.662Z,18.92
2019-05-30T08:05:24.467Z,19.44
2019-05-30T08:07:54.104Z,19.58
2019-05-30T08:10:24.895Z,19.75
2019-05-30T08:12:56.245Z,19.15
2019-05-30T08:15:27.374Z,18.96
2019-05-30T08:17:58.267Z,19.21
2019-05-30T08:20:29.636Z,19.01
2019-05-30T08:23:00.447Z,18.31
2019-05-30T08:25:32.206Z,18.50
2019-05-30T08:28:03.074Z,18.35
2019-05-30T08:30:34.595Z,18.43
2019-05-30T08:33:05.718Z,18.50
2019-05-30T08:35:48.742Z,18.54
2019-05-30T08:38:09.024Z,18.42
2019-05-30T08:40:39.890Z,18.48
2019-05-30T08:43:11.905Z,18.68
2019-05-30T08:45:42.693Z,18.63
2019-05-30T08:48:13.589Z,18.64
2019-05-30T08:50:44.881Z,18.49
2019-05-30T08:53:16.026Z,18.74
2019-05-30T08:55:47.378Z,18.87
2019-05-30T08:58:18.320Z,18.83
2019-05-30T09:00:49.444Z,18.97
2019-05-30T09:03:20.315Z,19.03
2019-05-30T09:06:03.006Z,19.26
2019-05-30T09:08:24.100Z,19.59
2019-05-30T09:10:54.968Z,19.32
2019-05-30T09:13:25.986Z,19.24
2019-05-30T09:15:56.850Z,19.64
2019-05-30T09:18:27.716Z,19.70
2019-05-30T09:20:58.842Z,19.87
2019-05-30T09:23:29.606Z,19.91
2019-05-30T09:26:00.635Z,20.10
2019-05-30T09:28:31.580Z,20.01
2019-05-30T09:31:02.441Z,20.02
2019-05-30T09:33:33.542Z,19.56
2019-05-30T09:36:13.029Z,19.85
2019-05-30T09:38:37.404Z,20.05
2019-05-30T09:41:08.566Z,20.25
2019-05-30T09:43:39.881Z,20.49
2019-05-30T09:46:11.932Z,20.73
2019-05-30T09:48:43.733Z,20.80
2019-05-30T09:51:16.021Z,21.03
2019-05-30T09:53:46.829Z,20.97
2019-05-30T09:56:17.891Z,20.81
2019-05-30T09:58:49.775Z,21.10
2019-05-30T10:01:21.633Z,21.15
2019-05-30T10:03:52.669Z,21.38
2019-05-30T10:06:29.641Z,21.54
2019-05-30T10:08:56.539Z,21.29
2019-05-30T10:11:27.482Z,21.52
2019-05-30T10:13:59.533Z,21.52
2019-05-30T10:16:30.851Z,21.82
2019-05-30T10:19:01.642Z,22.02
2019-05-30T10:21:32.780Z,21.90
2019-05-30T10:24:03.924Z,21.50
2019-05-30T10:26:34.800Z,21.21
2019-05-30T10:29:05.673Z,20.90
2019-05-30T10:31:36.576Z,21.26
2019-05-30T10:34:07.550Z,21.58
2019-05-30T10:36:44.295Z,21.92
2019-05-30T10:39:11.461Z,22.02
2019-05-30T10:41:42.336Z,22.17
2019-05-30T10:44:13.201Z,22.36
2019-05-30T10:46:44.089Z,22.31
2019-05-30T10:49:14.950Z,22.57
2019-05-30T10:51:47.774Z,22.56
2019-05-30T10:54:18.612Z,22.45
2019-05-30T10:56:50.002Z,21.80
2019-05-30T10:59:21.061Z,21.77
2019-05-30T11:01:53.035Z,22.10
2019-05-30T11:04:24.044Z,22.51
2019-05-30T11:07:18.180Z,23.05
2019-05-30T11:09:54.841Z,22.81
2019-05-30T11:12:26.109Z,22.43
2019-05-30T11:14:57.867Z,22.03
2019-05-30T11:17:28.947Z,21.82
2019-05-30T11:20:00.004Z,21.87
2019-05-30T11:22:31.386Z,21.31
2019-05-30T11:25:02.180Z,21.23
2019-05-30T11:27:33.049Z,21.27
2019-05-30T11:30:04.578Z,20.97
2019-05-30T11:32:35.487Z,20.95
2019-05-30T11:35:06.722Z,20.92
2019-05-30T11:37:37.747Z,21.05
2019-05-30T11:40:09.896Z,20.99
2019-05-30T11:42:40.905Z,21.02
2019-05-30T11:45:12.731Z,21.25
2019-05-30T11:47:44.085Z,21.47
2019-05-30T11:50:15.359Z,21.59
2019-05-30T11:52:46.206Z,21.74
2019-05-30T11:55:17.137Z,21.73
2019-05-30T11:57:48.013Z,21.89
2019-05-30T12:00:18.952Z,22.02
2019-05-30T12:02:50.223Z,21.90
2019-05-30T12:05:21.341Z,21.61
2019-05-30T12:07:52.794Z,21.87
2019-05-30T12:10:24.129Z,21.81
2019-05-30T12:12:55.341Z,21.78
2019-05-30T12:15:26.268Z,21.71
2019-05-30T12:17:57.466Z,21.70
2019-05-30T12:20:29.601Z,21.87
2019-05-30T12:23:02.122Z,21.78
2019-05-30T12:25:34.438Z,21.95
2019-05-30T12:28:05.395Z,22.17
2019-05-30T12:30:36.246Z,21.97
2019-05-30T12:33:07.374Z,22.01
2019-05-30T12:35:38.509Z,22.36
2019-05-30T12:38:09.612Z,22.14
2019-05-30T12:40:40.438Z,22.53
2019-05-30T12:43:11.602Z,22.47
2019-05-30T12:45:42.732Z,22.32
2019-05-30T12:48:13.533Z,22.67
2019-05-30T12:50:44.337Z,22.68
2019-05-30T12:53:15.451Z,22.40
2019-05-30T12:55:46.596Z,22.65
2019-05-30T12:58:17.660Z,22.97
2019-05-30T13:00:48.932Z,22.75
2019-05-30T13:03:20.060Z,22.76
2019-05-30T13:05:50.852Z,22.15
2019-05-30T13:08:22.252Z,22.46
2019-05-30T13:10:55.363Z,22.39
2019-05-30T13:13:26.255Z,22.34
2019-05-30T13:15:57.206Z,22.14
2019-05-30T13:18:28.329Z,22.06
2019-05-30T13:20:59.992Z,21.94
2019-05-30T13:23:30.850Z,22.13
2019-05-30T13:26:02.043Z,22.18
2019-05-30T13:28:32.763Z,22.24
2019-05-30T13:31:04.494Z,22.20
2019-05-30T13:33:38.301Z,22.31
2019-05-30T13:36:08.252Z,22.66
2019-05-30T13:38:39.275Z,22.43
2019-05-30T13:41:10.317Z,22.34
2019-05-30T13:43:41.172Z,22.49
2019-05-30T13:46:11.982Z,22.22
2019-05-30T13:48:42.943Z,21.99
2019-05-30T13:51:14.044Z,21.95
2019-05-30T13:53:45.178Z,21.90
2019-05-30T13:56:16.680Z,22.08
2019-05-30T13:58:47.703Z,22.24
2019-05-30T14:01:18.808Z,22.47
2019-05-30T14:03:50.536Z,22.73
2019-05-30T14:06:21.416Z,22.58
2019-05-30T14:08:53.029Z,22.43
2019-05-30T14:11:23.908Z,22.29
2019-05-30T14:13:55.046Z,22.34
2019-05-30T14:16:25.930Z,22.18
2019-05-30T14:18:56.755Z,22.18
2019-05-30T14:21:27.570Z,22.24
2019-05-30T14:23:58.387Z,22.25
2019-05-30T14:26:29.277Z,22.43
2019-05-30T14:29:03.974Z,22.36
2019-05-30T14:31:35.119Z,22.41
2019-05-30T14:34:06.101Z,22.28
2019-05-30T14:36:37.000Z,22.14
2019-05-30T14:39:09.044Z,22.11
2019-05-30T14:41:40.227Z,21.94
2019-05-30T14:44:11.434Z,22.03
2019-05-30T14:46:42.275Z,22.18
2019-05-30T14:49:13.127Z,21.70
2019-05-30T14:51:44.001Z,21.99
2019-05-30T14:54:14.820Z,22.11
2019-05-30T14:56:46.172Z,22.17
2019-05-30T14:59:17.402Z,21.98
2019-05-30T15:01:48.643Z,21.76
2019-05-30T15:04:19.465Z,21.56
2019-05-30T15:06:50.577Z,21.69
2019-05-30T15:09:25.916Z,21.53
2019-05-30T15:11:53.948Z,21.66
2019-05-30T15:14:24.812Z,21.40
2019-05-30T15:16:55.858Z,21.45
2019-05-30T15:19:26.981Z,21.33
2019-05-30T15:21:57.784Z,21.44
2019-05-30T15:24:29.089Z,21.45
2019-05-30T15:27:00.080Z,21.34
2019-05-30T15:29:30.879Z,21.53
2019-05-30T15:32:01.933Z,21.39
2019-05-30T15:34:32.965Z,21.29
2019-05-30T15:37:04.082Z,21.32
2019-05-30T15:39:35.138Z,21.18
2019-05-30T15:42:07.222Z,21.11
2019-05-30T15:44:38.043Z,21.07
2019-05-30T15:47:09.940Z,20.93
2019-05-30T15:49:40.772Z,20.79
2019-05-30T15:52:13.224Z,20.87
2019-05-30T15:54:44.121Z,20.81
2019-05-30T15:57:15.703Z,20.79
2019-05-30T15:59:46.498Z,20.69
2019-05-30T16:02:18.214Z,20.66
2019-05-30T16:04:49.051Z,20.71
2019-05-30T16:07:20.859Z,20.69
2019-05-30T16:09:51.901Z,20.52
2019-05-30T16:12:24.109Z,20.52
2019-05-30T16:14:54.975Z,20.54
2019-05-30T16:17:26.038Z,20.68
2019-05-30T16:19:57.266Z,20.51
2019-05-30T16:22:28.080Z,20.46
2019-05-30T16:24:58.965Z,20.46
2019-05-30T16:27:31.201Z,20.26
2019-05-30T16:30:03.040Z,20.29
2019-05-30T16:32:35.642Z,20.29
2019-05-30T16:35:07.025Z,20.36
2019-05-30T16:37:38.807Z,20.28
2019-05-30T16:40:12.599Z,20.29
2019-05-30T16:42:43.980Z,20.28
2019-05-30T16:45:20.274Z,20.27
2019-05-30T16:47:49.386Z,20.25
2019-05-30T16:50:23.438Z,20.32
2019-05-30T16:52:55.525Z,20.28
2019-05-30T16:55:27.584Z,20.26
2019-05-30T16:57:58.867Z,20.13
2019-05-30T17:00:30.038Z,20.08
2019-05-30T17:03:01.111Z,19.94
2019-05-30T17:05:32.315Z,19.93
2019-05-30T17:08:03.286Z,19.81
2019-05-30T17:10:34.161Z,19.82
2019-05-30T17:13:05.038Z,19.72
2019-05-30T17:15:36.136Z,19.70
2019-05-30T17:18:07.249Z,19.64
2019-05-30T17:20:38.118Z,19.58
2019-05-30T17:23:09.157Z,19.51
2019-05-30T17:25:40.517Z,19.41
2019-05-30T17:28:14.799Z,19.46
2019-05-30T17:30:44.411Z,19.54
2019-05-30T17:33:17.758Z,19.49
2019-05-30T17:35:48.397Z,19.57
2019-05-30T17:38:20.412Z,19.63
2019-05-30T17:40:51.251Z,19.71
2019-05-30T17:43:22.930Z,19.78
2019-05-30T17:45:53.846Z,19.72
2019-05-30T17:48:25.643Z,19.73
2019-05-30T17:50:56.636Z,19.95
2019-05-30T17:53:28.034Z,20.13
2019-05-30T17:55:59.582Z,20.23
2019-05-30T17:58:30.913Z,20.42
2019-05-30T18:01:02.047Z,20.36
2019-05-30T18:03:32.868Z,20.25
2019-05-30T18:06:04.048Z,20.05
2019-05-30T18:08:34.851Z,20.01
2019-05-30T18:11:05.710Z,19.83
2019-05-30T18:13:37.106Z,19.60
2019-05-30T18:16:08.047Z,19.39
2019-05-30T18:18:38.926Z,19.31
2019-05-30T18:21:09.962Z,19.24
2019-05-30T18:23:40.772Z,19.17
2019-05-30T18:26:12.533Z,19.11
2019-05-30T18:28:43.741Z,19.06
2019-05-30T18:31:15.011Z,19.15
2019-05-30T18:33:46.067Z,19.13
2019-05-30T18:36:17.160Z,19.29
2019-05-30T18:38:48.069Z,19.28
2019-05-30T18:41:18.930Z,19.19
2019-05-30T18:43:49.899Z,19.06
2019-05-30T18:46:20.762Z,18.90
2019-05-30T18:48:51.634Z,18.78
2019-05-30T18:51:24.063Z,18.75
2019-05-30T18:53:55.319Z,18.48
2019-05-30T18:56:26.598Z,18.22
2019-05-30T18:58:57.705Z,18.03
2019-05-30T19:01:29.639Z,17.76
2019-05-30T19:04:01.951Z,17.55
2019-05-30T19:06:33.820Z,17.46
2019-05-30T19:09:06.793Z,17.31
2019-05-30T19:11:38.354Z,17.10
2019-05-30T19:14:09.307Z,16.94
2019-05-30T19:16:40.435Z,16.73
2019-05-30T19:19:11.314Z,16.64
2019-05-30T19:21:42.101Z,16.47
2019-05-30T19:24:13.065Z,16.32
2019-05-30T19:26:43.882Z,16.08
2019-05-30T19:29:14.752Z,16.00
2019-05-30T19:31:46.418Z,15.81
2019-05-30T19:34:17.584Z,15.65
2019-05-30T19:36:48.625Z,15.56
2019-05-30T19:39:19.507Z,15.44
2019-05-30T19:41:56.698Z,15.24
2019-05-30T19:44:22.872Z,15.20
2019-05-30T19:46:53.918Z,15.13
2019-05-30T19:49:26.268Z,14.99
2019-05-30T19:51:57.342Z,14.93
2019-05-30T19:54:28.906Z,14.83
2019-05-30T19:57:00.287Z,14.76
2019-05-30T19:59:31.708Z,14.64
2019-05-30T20:02:03.029Z,14.54
2019-05-30T20:04:34.285Z,14.41
2019-05-30T20:07:05.141Z,14.34
2019-05-30T20:09:36.683Z,14.27
2019-05-30T20:12:09.210Z,14.17
2019-05-30T20:14:41.288Z,14.11
2019-05-30T20:17:12.109Z,13.98
2019-05-30T20:19:42.993Z,14.00
2019-05-30T20:22:13.785Z,13.94
2019-05-30T20:24:44.670Z,13.87
2019-05-30T20:27:15.758Z,13.82
2019-05-30T20:29:46.709Z,13.78
2019-05-30T20:32:17.539Z,13.73
2019-05-30T20:34:48.455Z,13.66
2019-05-30T20:37:19.874Z,13.60
2019-05-30T20:39:51.096Z,13.43
2019-05-30T20:42:22.170Z,13.48
2019-05-30T20:44:53.063Z,13.44
2019-05-30T20:47:23.985Z,13.40
2019-05-30T20:49:55.192Z,13.41
2019-05-30T20:52:26.514Z,13.41
2019-05-30T20:54:57.331Z,13.55
2019-05-30T20:57:28.468Z,13.53
2019-05-30T20:59:59.539Z,13.53
2019-05-30T21:02:30.412Z,13.56
2019-05-30T21:05:01.540Z,13.47
2019-05-30T21:07:32.713Z,13.44
2019-05-30T21:10:04.391Z,13.39
2019-05-30T21:12:39.327Z,13.34
2019-05-30T21:15:08.603Z,13.21
2019-05-30T21:17:39.766Z,13.21
2019-05-30T21:20:11.984Z,13.23
2019-05-30T21:22:42.804Z,13.19
2019-05-30T21:25:14.168Z,13.22
2019-05-30T21:27:45.301Z,13.24
2019-05-30T21:30:17.794Z,13.26
2019-05-30T21:32:48.923Z,13.26
2019-05-30T21:35:19.926Z,13.26
2019-05-30T21:37:51.057Z,13.23
2019-05-30T21:40:21.951Z,13.19
2019-05-30T21:43:04.730Z,13.10
2019-05-30T21:45:25.415Z,13.01
2019-05-30T21:47:56.304Z,12.97
2019-05-30T21:50:27.128Z,12.90
2019-05-30T21:52:58.222Z,12.88
2019-05-30T21:55:29.624Z,12.89
2019-05-30T21:58:00.434Z,12.84
2019-05-30T22:01:36.971Z,12.87
2019-05-30T22:04:08.378Z,12.89
2019-05-30T22:06:40.752Z,12.93
2019-05-30T22:09:11.786Z,12.96
2019-05-30T22:11:43.654Z,12.88
2019-05-30T22:14:14.774Z,12.81
2019-05-30T22:16:46.172Z,12.82
2019-05-30T22:19:17.621Z,12.82
2019-05-30T22:21:48.761Z,12.82
2019-05-30T22:24:19.654Z,12.87
2019-05-30T22:26:50.801Z,12.85
2019-05-30T22:29:22.130Z,12.83
2019-05-30T22:31:53.519Z,12.83
2019-05-30T22:34:24.490Z,12.77
2019-05-30T22:36:55.306Z,12.80
2019-05-30T22:39:26.894Z,12.83
2019-05-30T22:41:57.714Z,12.80
2019-05-30T22:44:29.559Z,12.82
2019-05-30T22:47:00.396Z,12.77
2019-05-30T22:49:31.689Z,12.77
2019-05-30T22:52:02.850Z,12.75
2019-05-30T22:54:33.886Z,12.74
2019-05-30T22:57:04.716Z,12.75
2019-05-30T22:59:35.522Z,12.72
2019-05-30T23:02:06.421Z,12.70
2019-05-30T23:04:37.696Z,12.63
2019-05-30T23:07:08.589Z,12.57
2019-05-30T23:09:39.465Z,12.60
2019-05-30T23:12:10.443Z,12.61
2019-05-30T23:14:41.325Z,12.59
2019-05-30T23:17:12.900Z,12.60
2019-05-30T23:19:44.101Z,12.61
2019-05-30T23:22:15.330Z,12.63
2019-05-30T23:24:47.143Z,12.69
2019-05-30T23:27:18.011Z,12.71
2019-05-30T23:29:49.742Z,12.77
2019-05-30T23:32:21.865Z,12.82
2019-05-30T23:34:52.746Z,12.93
2019-05-30T23:37:23.562Z,12.97
2019-05-30T23:39:55.001Z,12.95
2019-05-30T23:42:25.992Z,12.89
2019-05-30T23:44:57.516Z,12.83
2019-05-30T23:47:28.885Z,12.76
2019-05-30T23:50:00.409Z,12.69
2019-05-30T23:52:31.242Z,12.63
2019-05-30T23:55:02.497Z,12.56
2019-05-30T23:57:34.705Z,12.54
